LFKB/BIA METAR and TAF weather

Enter ICAO airport designator
Station Type Date Time Source
LFKB METAR 2020/12/06 02:00 UTC NOAA

LFKB 060200Z AUTO VRB02KT 9999 -RA BKN064 BKN078 OVC088 ///// Q0999 TEMPO RA


Station Type Date Time Source
LFKB Decoded METAR 2020/12/06 02:00 UTC NOAA

Bastia, France (LFKB) 42-33N 009-29E 12M
Dec 05, 2020 - 09:00 PM EST / 2020.12.06 0200 UTC
Wind: Variable at 2 MPH (2 KT):0
Visibility: greater than 7 mile(s):0
Sky conditions: overcast
Weather: light rain
Pressure (altimeter): 29.50 in. Hg (0999 hPa)
ob: LFKB 060200Z AUTO VRB02KT 9999 -RA BKN064 BKN078 OVC088 ///// Q0999 TEMPO RA
cycle: 2

Station Type Date Time Source
LFKB TAF 2020/12/05 21:43 UTC NOAA

TAF LFKB 052000Z 0521/0621 16008KT 9999 FEW033 BKN100 TX14/0612Z TN08/0604Z
TEMPO 0521/0606 RA SCT020 OVC100
BECMG 0605/0607 32012KT SCT030 PROB30
TEMPO 0609/0621 SHRA SCT020TCU BKN040

Example: see airport list